createdAt,value
2022-07-28T00:01:02.275Z,93.20
2022-07-28T00:03:31.310Z,93.60
2022-07-28T00:06:02.511Z,93.80
2022-07-28T00:08:31.692Z,93.60
2022-07-28T00:11:00.670Z,93.60
2022-07-28T00:13:29.589Z,93.70
2022-07-28T00:15:56.430Z,93.90
2022-07-28T00:18:27.920Z,94.30
2022-07-28T00:20:58.053Z,94.70
2022-07-28T00:23:39.206Z,94.90
2022-07-28T00:26:07.826Z,95.40
2022-07-28T00:28:34.631Z,95.70
2022-07-28T00:31:06.162Z,96.30
2022-07-28T00:33:37.258Z,96.50
2022-07-28T00:36:07.149Z,96.90
2022-07-28T00:38:37.326Z,97.20
2022-07-28T00:41:13.567Z,97.50
2022-07-28T00:43:45.145Z,98.00
2022-07-28T00:46:12.571Z,97.90
2022-07-28T00:48:44.897Z,97.80
2022-07-28T00:51:16.478Z,97.70
2022-07-28T00:53:44.203Z,97.60
2022-07-28T00:56:11.295Z,97.70
2022-07-28T00:58:39.164Z,98.20
2022-07-28T01:01:10.208Z,98.40
2022-07-28T01:03:43.133Z,98.80
2022-07-28T01:06:39.475Z,98.70
2022-07-28T01:09:24.639Z,98.50
2022-07-28T01:12:18.559Z,98.70
2022-07-28T01:14:52.293Z,98.70
2022-07-28T01:17:53.988Z,98.80
2022-07-28T01:20:29.130Z,99.40
2022-07-28T01:23:25.036Z,99.90
2022-07-28T01:26:15.985Z,99.90
2022-07-28T01:29:04.102Z,99.90
2022-07-28T01:31:40.975Z,99.90
2022-07-28T01:34:11.790Z,99.90
2022-07-28T01:37:04.179Z,99.90
2022-07-28T01:39:35.947Z,99.90
2022-07-28T01:42:05.889Z,99.90
2022-07-28T01:44:41.087Z,99.90
2022-07-28T01:47:09.303Z,99.90
2022-07-28T01:49:37.849Z,99.90
2022-07-28T01:52:08.181Z,99.90
2022-07-28T01:54:38.799Z,99.90
2022-07-28T01:57:08.194Z,99.90
2022-07-28T01:59:40.858Z,99.90
2022-07-28T02:02:08.913Z,99.90
2022-07-28T02:04:40.826Z,99.90
2022-07-28T02:07:10.403Z,99.90
2022-07-28T02:09:40.591Z,99.90
2022-07-28T02:12:12.699Z,99.90
2022-07-28T02:14:40.205Z,99.90
2022-07-28T02:17:14.508Z,99.90
2022-07-28T02:19:43.065Z,99.90
2022-07-28T02:22:13.666Z,99.90
2022-07-28T02:24:43.349Z,99.90
2022-07-28T02:27:16.598Z,99.90
2022-07-28T02:29:51.300Z,99.90
2022-07-28T02:32:26.963Z,99.90
2022-07-28T02:35:02.981Z,99.90
2022-07-28T02:37:38.433Z,99.90
2022-07-28T02:40:09.316Z,99.90
2022-07-28T02:42:40.392Z,99.90
2022-07-28T02:45:12.068Z,99.90
2022-07-28T02:47:46.706Z,99.90
2022-07-28T02:50:20.371Z,99.90
2022-07-28T02:52:49.213Z,99.90
2022-07-28T02:55:17.365Z,99.90
2022-07-28T02:57:50.891Z,99.90
2022-07-28T03:00:22.876Z,99.90
2022-07-28T03:02:50.478Z,99.90
2022-07-28T03:05:20.949Z,99.90
2022-07-28T03:07:52.692Z,99.90
2022-07-28T03:10:32.927Z,99.90
2022-07-28T03:13:05.275Z,99.90
2022-07-28T03:15:32.460Z,99.90
2022-07-28T03:18:04.665Z,99.90
2022-07-28T03:20:34.163Z,99.90
2022-07-28T03:23:02.134Z,99.90
2022-07-28T03:25:36.959Z,99.90
2022-07-28T03:28:06.117Z,99.90
2022-07-28T03:30:38.658Z,99.90
2022-07-28T03:33:08.228Z,99.90
2022-07-28T03:35:38.970Z,99.90
2022-07-28T03:38:09.711Z,99.90
2022-07-28T03:40:38.696Z,99.90
2022-07-28T03:43:08.697Z,99.90
2022-07-28T03:45:36.389Z,99.90
2022-07-28T03:48:10.289Z,99.90
2022-07-28T03:50:37.116Z,99.90
2022-07-28T03:53:04.038Z,99.90
2022-07-28T03:55:30.798Z,99.90
2022-07-28T03:57:57.786Z,99.90
2022-07-28T04:00:25.841Z,99.90
2022-07-28T04:02:55.365Z,99.90
2022-07-28T04:05:22.215Z,99.90
2022-07-28T04:07:49.021Z,99.90
2022-07-28T04:10:17.454Z,99.90
2022-07-28T04:12:57.533Z,99.90
2022-07-28T04:15:26.540Z,99.90
2022-07-28T04:17:54.806Z,99.90
2022-07-28T04:20:23.114Z,99.90
2022-07-28T04:22:51.128Z,99.90
2022-07-28T04:25:24.815Z,99.90
2022-07-28T04:27:55.369Z,99.90
2022-07-28T04:30:24.908Z,99.90
2022-07-28T04:32:56.243Z,99.90
2022-07-28T04:35:28.572Z,99.90
2022-07-28T04:37:58.446Z,99.90
2022-07-28T04:40:26.740Z,99.90
2022-07-28T04:42:54.532Z,99.90
2022-07-28T04:45:24.746Z,99.90
2022-07-28T04:47:51.912Z,99.90
2022-07-28T04:50:21.299Z,99.90
2022-07-28T04:52:50.964Z,99.90
2022-07-28T04:55:18.320Z,99.90
2022-07-28T04:57:45.637Z,99.90
2022-07-28T05:00:15.883Z,99.90
2022-07-28T05:02:44.676Z,99.90
2022-07-28T05:05:12.735Z,99.90
2022-07-28T05:07:42.064Z,99.90
2022-07-28T05:10:11.739Z,99.90
2022-07-28T05:12:39.155Z,99.90
2022-07-28T05:15:08.895Z,99.90
2022-07-28T05:17:37.138Z,99.90
2022-07-28T05:20:05.993Z,99.90
2022-07-28T05:22:53.700Z,99.90
2022-07-28T05:25:23.647Z,99.90
2022-07-28T05:27:51.181Z,99.90
2022-07-28T05:30:19.551Z,99.90
2022-07-28T05:32:46.668Z,99.90
2022-07-28T05:35:13.779Z,99.90
2022-07-28T05:37:42.772Z,99.90
2022-07-28T05:40:14.666Z,99.90
2022-07-28T05:42:47.798Z,99.90
2022-07-28T05:45:19.385Z,99.90
2022-07-28T05:47:52.704Z,99.90
2022-07-28T05:50:22.205Z,99.90
2022-07-28T05:52:50.113Z,99.90
2022-07-28T05:55:19.748Z,99.90
2022-07-28T05:57:51.512Z,99.90
2022-07-28T06:00:21.298Z,99.90
2022-07-28T06:02:51.137Z,99.90
2022-07-28T06:05:19.555Z,99.90
2022-07-28T06:07:48.039Z,99.90
2022-07-28T06:10:20.353Z,99.90
2022-07-28T06:12:49.427Z,99.90
2022-07-28T06:15:20.756Z,99.90
2022-07-28T06:17:48.769Z,99.90
2022-07-28T06:20:15.625Z,99.90
2022-07-28T06:22:44.003Z,99.90
2022-07-28T06:25:20.963Z,99.90
2022-07-28T06:27:53.352Z,99.90
2022-07-28T06:30:20.969Z,99.90
2022-07-28T06:32:52.748Z,99.90
2022-07-28T06:35:20.295Z,99.90
2022-07-28T06:37:48.801Z,99.90
2022-07-28T06:40:19.500Z,99.90
2022-07-28T06:42:49.935Z,99.90
2022-07-28T06:45:20.830Z,99.90
2022-07-28T06:47:52.533Z,99.90
2022-07-28T06:50:24.683Z,99.90
2022-07-28T06:52:55.192Z,99.90
2022-07-28T06:55:24.614Z,99.90
2022-07-28T06:57:54.411Z,99.90
2022-07-28T07:00:21.341Z,99.40
2022-07-28T07:02:48.131Z,99.30
2022-07-28T07:05:15.646Z,98.80
2022-07-28T07:07:43.547Z,98.50
2022-07-28T07:10:11.677Z,98.30
2022-07-28T07:12:41.175Z,98.10
2022-07-28T07:15:08.850Z,97.70
2022-07-28T07:17:37.531Z,97.60
2022-07-28T07:20:07.791Z,97.40
2022-07-28T07:22:35.608Z,97.40
2022-07-28T07:25:13.356Z,97.30
2022-07-28T07:27:40.179Z,96.80
2022-07-28T07:30:08.517Z,96.80
2022-07-28T07:32:35.704Z,96.70
2022-07-28T07:35:02.558Z,96.30
2022-07-28T07:37:32.425Z,96.20
2022-07-28T07:40:02.329Z,96.10
2022-07-28T07:42:29.357Z,95.70
2022-07-28T07:44:56.334Z,95.50
2022-07-28T07:47:25.522Z,95.50
2022-07-28T07:49:52.390Z,95.50
2022-07-28T07:52:21.575Z,95.40
2022-07-28T07:54:48.373Z,95.60
2022-07-28T07:57:15.213Z,94.90
2022-07-28T07:59:42.096Z,94.80
2022-07-28T08:02:11.269Z,94.70
2022-07-28T08:04:39.044Z,94.90
2022-07-28T08:07:06.452Z,94.70
2022-07-28T08:09:34.302Z,94.50
2022-07-28T08:12:03.406Z,94.50
2022-07-28T08:14:30.224Z,94.30
2022-07-28T08:16:59.174Z,93.50
2022-07-28T08:19:26.323Z,94.10
2022-07-28T08:21:53.407Z,94.00
2022-07-28T08:24:27.608Z,93.70
2022-07-28T08:27:00.019Z,93.30
2022-07-28T08:29:29.352Z,93.00
2022-07-28T08:31:56.317Z,93.10
2022-07-28T08:34:26.307Z,92.50
2022-07-28T08:37:02.414Z,92.30
2022-07-28T08:39:32.125Z,92.10
2022-07-28T08:42:24.174Z,91.90
2022-07-28T08:45:01.903Z,91.80
2022-07-28T08:47:52.146Z,92.20
2022-07-28T08:50:24.521Z,92.10
2022-07-28T08:52:52.989Z,91.80
2022-07-28T08:55:25.427Z,91.30
2022-07-28T08:58:00.210Z,91.20
2022-07-28T09:00:29.452Z,90.70
2022-07-28T09:02:56.703Z,90.40
2022-07-28T09:05:28.473Z,89.80
2022-07-28T09:07:57.561Z,89.70
2022-07-28T09:10:28.094Z,89.50
2022-07-28T09:12:55.835Z,89.30
2022-07-28T09:15:22.738Z,87.80
2022-07-28T09:17:51.676Z,88.20
2022-07-28T09:20:21.138Z,86.10
2022-07-28T09:22:58.303Z,85.70
2022-07-28T09:25:25.702Z,85.60
2022-07-28T09:27:55.320Z,84.70
2022-07-28T09:30:35.441Z,85.00
2022-07-28T09:33:42.397Z,84.50
2022-07-28T09:36:15.791Z,83.50
2022-07-28T09:38:42.820Z,83.80
2022-07-28T09:41:09.731Z,82.80
2022-07-28T09:43:53.908Z,82.30
2022-07-28T09:46:24.482Z,81.90
2022-07-28T09:48:59.134Z,79.70
2022-07-28T09:51:31.137Z,80.50
2022-07-28T09:54:18.575Z,79.60
2022-07-28T09:56:46.094Z,79.00
2022-07-28T09:59:14.877Z,78.60
2022-07-28T10:01:56.772Z,77.30
2022-07-28T10:04:50.975Z,77.00
2022-07-28T10:07:18.062Z,75.50
2022-07-28T10:09:56.036Z,75.30
2022-07-28T10:12:30.112Z,75.70
2022-07-28T10:15:21.778Z,74.80
2022-07-28T10:17:58.203Z,73.60
2022-07-28T10:20:28.433Z,71.60
2022-07-28T10:23:03.517Z,72.80
2022-07-28T10:25:34.193Z,72.30
2022-07-28T10:28:02.811Z,73.00
2022-07-28T10:30:33.735Z,73.20
2022-07-28T10:33:05.240Z,72.10
2022-07-28T10:35:48.560Z,71.10
2022-07-28T10:38:22.575Z,71.20
2022-07-28T10:40:50.666Z,70.30
2022-07-28T10:43:17.444Z,70.40
2022-07-28T10:48:34.101Z,69.70
2022-07-28T10:51:01.677Z,69.10
2022-07-28T10:53:47.037Z,68.90
2022-07-28T10:56:19.551Z,68.10
2022-07-28T10:59:28.845Z,67.40
2022-07-28T11:01:56.079Z,67.40
2022-07-28T11:04:44.153Z,66.10
2022-07-28T11:07:12.492Z,63.70
2022-07-28T11:09:39.637Z,63.90
2022-07-28T11:12:09.742Z,64.80
2022-07-28T11:14:39.390Z,65.20
2022-07-28T11:17:10.140Z,64.90
2022-07-28T11:22:40.176Z,64.90
2022-07-28T11:25:19.514Z,64.50
2022-07-28T11:27:51.142Z,63.80
2022-07-28T11:30:33.647Z,64.10
2022-07-28T11:33:07.026Z,63.80
2022-07-28T11:35:40.098Z,63.40
2022-07-28T11:38:14.209Z,63.10
2022-07-28T11:40:52.596Z,63.40
2022-07-28T11:43:33.974Z,63.00
2022-07-28T11:46:11.392Z,63.20
2022-07-28T11:48:47.510Z,62.40
2022-07-28T11:51:15.583Z,63.40
2022-07-28T11:53:55.534Z,62.70
2022-07-28T11:56:31.673Z,62.80
2022-07-28T11:59:06.010Z,62.30
2022-07-28T12:01:38.548Z,61.60
2022-07-28T12:04:12.171Z,60.20
2022-07-28T12:06:51.288Z,60.80
2022-07-28T12:09:23.286Z,60.50
2022-07-28T12:11:55.333Z,60.20
2022-07-28T12:14:29.024Z,60.50
2022-07-28T12:16:56.126Z,59.80
2022-07-28T12:19:24.233Z,60.80
2022-07-28T12:21:59.949Z,59.20
2022-07-28T12:24:44.974Z,58.90
2022-07-28T12:27:14.753Z,58.30
2022-07-28T12:29:42.569Z,57.20
2022-07-28T12:32:14.186Z,57.20
2022-07-28T12:34:40.966Z,56.60
2022-07-28T12:37:14.250Z,56.50
2022-07-28T12:39:44.273Z,56.40
2022-07-28T12:42:12.766Z,56.30
2022-07-28T12:44:40.532Z,56.10
2022-07-28T12:47:09.557Z,56.40
2022-07-28T12:49:37.493Z,56.40
2022-07-28T12:52:26.531Z,56.10
2022-07-28T12:54:55.477Z,56.50
2022-07-28T12:57:51.437Z,56.90
2022-07-28T13:00:26.546Z,56.70
2022-07-28T13:02:56.501Z,57.10
2022-07-28T13:05:53.805Z,55.60
2022-07-28T13:08:29.360Z,55.20
2022-07-28T13:10:58.911Z,55.60
2022-07-28T13:13:26.776Z,55.10
2022-07-28T13:16:18.756Z,54.40
2022-07-28T13:18:56.114Z,54.50
2022-07-28T13:22:01.642Z,53.80
2022-07-28T13:24:30.035Z,52.80
2022-07-28T13:26:59.010Z,53.20
2022-07-28T13:29:25.931Z,52.30
2022-07-28T13:31:54.575Z,51.70
2022-07-28T13:34:21.717Z,53.30
2022-07-28T13:36:48.545Z,52.60
2022-07-28T13:39:15.347Z,52.20
2022-07-28T13:41:57.659Z,51.40
2022-07-28T13:44:30.023Z,50.40
2022-07-28T13:47:03.142Z,50.40
2022-07-28T13:49:33.949Z,50.50
2022-07-28T13:52:03.553Z,49.40
2022-07-28T13:54:33.063Z,49.30
2022-07-28T13:57:05.618Z,49.60
2022-07-28T13:59:37.690Z,49.60
2022-07-28T14:02:15.298Z,49.70
2022-07-28T14:04:50.385Z,49.40
2022-07-28T14:07:20.655Z,50.00
2022-07-28T14:09:47.868Z,50.20
2022-07-28T14:12:14.595Z,49.80
2022-07-28T14:14:48.462Z,50.70
2022-07-28T14:17:40.246Z,50.70
2022-07-28T14:20:06.363Z,50.50
2022-07-28T14:22:33.182Z,50.50
2022-07-28T14:25:00.009Z,50.10
2022-07-28T14:27:29.407Z,50.50
2022-07-28T14:29:56.451Z,49.90
2022-07-28T14:32:23.333Z,50.00
2022-07-28T14:34:50.530Z,49.80
2022-07-28T14:37:17.741Z,49.30
2022-07-28T14:39:44.558Z,49.40
2022-07-28T14:42:15.824Z,49.10
2022-07-28T14:44:42.574Z,49.00
2022-07-28T14:47:09.749Z,49.50
2022-07-28T14:49:58.187Z,49.40
2022-07-28T14:52:26.637Z,49.30
2022-07-28T14:54:54.815Z,48.90
2022-07-28T14:57:24.500Z,49.20
2022-07-28T15:00:14.459Z,49.90
2022-07-28T15:02:45.668Z,49.40
2022-07-28T15:05:12.710Z,48.70
2022-07-28T15:07:39.605Z,47.50
2022-07-28T15:10:06.919Z,47.10
2022-07-28T15:12:33.713Z,46.60
2022-07-28T15:15:02.812Z,46.50
2022-07-28T15:17:29.578Z,46.30
2022-07-28T15:19:57.648Z,46.30
2022-07-28T15:22:26.507Z,46.00
2022-07-28T15:24:53.518Z,45.20
2022-07-28T15:27:20.303Z,45.40
2022-07-28T15:29:52.255Z,45.80
2022-07-28T15:32:27.181Z,45.20
2022-07-28T15:34:55.226Z,45.40
2022-07-28T15:37:22.056Z,45.90
2022-07-28T15:39:48.888Z,45.40
2022-07-28T15:42:15.923Z,44.80
2022-07-28T15:44:42.812Z,42.20
2022-07-28T15:47:11.703Z,39.50
2022-07-28T15:49:38.394Z,36.60
2022-07-28T15:52:07.555Z,34.00
2022-07-28T15:54:34.357Z,33.20
2022-07-28T15:57:01.218Z,32.70
2022-07-28T15:59:49.299Z,33.00
2022-07-28T16:02:18.137Z,32.30
2022-07-28T16:04:49.072Z,32.20
2022-07-28T16:07:28.439Z,30.70
2022-07-28T16:09:56.109Z,29.80
2022-07-28T16:12:25.377Z,30.20
2022-07-28T16:14:55.561Z,32.00
2022-07-28T16:17:23.446Z,32.20
2022-07-28T16:19:53.921Z,31.70
2022-07-28T16:22:21.323Z,31.80
2022-07-28T16:24:50.736Z,33.00
2022-07-28T16:27:17.591Z,34.50
2022-07-28T16:29:46.870Z,34.30
2022-07-28T16:32:14.100Z,34.10
2022-07-28T16:34:40.856Z,33.20
2022-07-28T16:37:08.151Z,32.60
2022-07-28T16:39:35.267Z,32.60
2022-07-28T16:42:04.708Z,34.20
2022-07-28T16:44:32.002Z,35.30
2022-07-28T16:47:01.806Z,35.20
2022-07-28T16:49:28.703Z,35.30
2022-07-28T16:51:58.295Z,34.40
2022-07-28T16:54:25.057Z,33.60
2022-07-28T16:56:54.539Z,32.30
2022-07-28T16:59:23.617Z,31.60
2022-07-28T17:02:04.396Z,30.70
2022-07-28T17:04:33.417Z,30.00
2022-07-28T17:07:02.948Z,31.10
2022-07-28T17:09:32.241Z,30.90
2022-07-28T17:11:59.198Z,31.90
2022-07-28T17:14:26.042Z,31.20
2022-07-28T17:16:54.913Z,31.30
2022-07-28T17:19:24.323Z,31.50
2022-07-28T17:21:51.218Z,31.80
2022-07-28T17:24:20.846Z,32.00
2022-07-28T17:29:43.823Z,32.30
2022-07-28T17:32:13.347Z,32.60
2022-07-28T17:34:42.659Z,32.90
2022-07-28T17:37:14.106Z,33.00
2022-07-28T17:39:40.910Z,33.00
2022-07-28T17:42:07.700Z,32.70
2022-07-28T17:44:34.985Z,32.90
2022-07-28T17:47:03.501Z,33.10
2022-07-28T17:49:30.563Z,33.40
2022-07-28T17:51:57.562Z,34.20
2022-07-28T17:54:27.445Z,34.20
2022-07-28T17:57:01.477Z,34.60
2022-07-28T17:59:34.327Z,36.00
2022-07-28T18:02:18.994Z,37.60
2022-07-28T18:04:47.304Z,39.60
2022-07-28T18:07:16.501Z,41.10
2022-07-28T18:09:43.281Z,42.50
2022-07-28T18:12:12.578Z,43.50
2022-07-28T18:14:39.365Z,44.20
2022-07-28T18:17:06.095Z,45.10
2022-07-28T18:19:34.970Z,45.40
2022-07-28T18:22:01.747Z,45.70
2022-07-28T18:24:28.981Z,46.60
2022-07-28T18:26:58.356Z,47.10
2022-07-28T18:29:26.068Z,47.80
2022-07-28T18:32:07.699Z,48.20
2022-07-28T18:34:36.879Z,49.10
2022-07-28T18:37:03.675Z,49.60
2022-07-28T18:39:33.031Z,49.60
2022-07-28T18:42:05.914Z,50.20
2022-07-28T18:44:35.008Z,50.50
2022-07-28T18:47:03.887Z,50.80
2022-07-28T18:49:37.624Z,51.00
2022-07-28T18:52:05.423Z,51.60
2022-07-28T18:54:32.179Z,51.60
2022-07-28T18:56:59.102Z,51.80
2022-07-28T18:59:26.052Z,51.90
2022-07-28T19:01:55.081Z,52.00
2022-07-28T19:04:21.889Z,52.40
2022-07-28T19:06:50.978Z,52.70
2022-07-28T19:09:17.763Z,52.90
2022-07-28T19:11:46.598Z,53.30
2022-07-28T19:14:14.865Z,54.00
2022-07-28T19:16:42.313Z,54.40
2022-07-28T19:19:09.544Z,55.10
2022-07-28T19:21:36.378Z,55.00
2022-07-28T19:24:04.172Z,54.90
2022-07-28T19:26:30.998Z,55.00
2022-07-28T19:29:02.495Z,55.10
2022-07-28T19:31:30.212Z,55.60
2022-07-28T19:33:57.401Z,55.60
2022-07-28T19:36:27.166Z,55.80
2022-07-28T19:38:53.927Z,56.40
2022-07-28T19:41:23.381Z,56.70
2022-07-28T19:43:52.400Z,57.00
2022-07-28T19:46:24.160Z,57.60
2022-07-28T19:48:55.472Z,57.90
2022-07-28T19:51:22.372Z,58.30
2022-07-28T19:53:51.675Z,58.40
2022-07-28T19:56:22.163Z,59.00
2022-07-28T19:58:59.565Z,58.90
2022-07-28T20:01:29.025Z,58.80
2022-07-28T20:04:03.333Z,59.20
2022-07-28T20:06:34.506Z,59.50
2022-07-28T20:09:03.402Z,60.20
2022-07-28T20:11:31.351Z,60.90
2022-07-28T20:13:58.412Z,61.40
2022-07-28T20:16:25.316Z,61.40
2022-07-28T20:18:52.736Z,61.70
2022-07-28T20:21:21.303Z,61.90
2022-07-28T20:23:48.162Z,61.50
2022-07-28T20:26:18.620Z,61.80
2022-07-28T20:28:52.998Z,61.80
2022-07-28T20:31:23.220Z,62.10
2022-07-28T20:33:56.461Z,62.50
2022-07-28T20:36:27.778Z,63.30
2022-07-28T20:38:58.935Z,64.50
2022-07-28T20:41:25.746Z,66.50
2022-07-28T20:44:26.368Z,66.40
2022-07-28T20:46:42.391Z,65.50
2022-07-28T20:49:09.493Z,65.80
2022-07-28T20:51:36.309Z,66.90
2022-07-28T20:54:05.480Z,74.80
2022-07-28T20:56:32.246Z,84.10
2022-07-28T20:59:06.366Z,90.90
2022-07-28T21:01:34.061Z,97.00
2022-07-28T21:04:01.027Z,99.90
2022-07-28T21:06:28.092Z,99.90
2022-07-28T21:09:00.556Z,99.90
2022-07-28T21:11:34.723Z,99.90
2022-07-28T21:14:02.507Z,99.90
2022-07-28T21:16:29.511Z,99.90
2022-07-28T21:18:58.557Z,99.90
2022-07-28T21:21:25.526Z,99.90
2022-07-28T21:23:54.407Z,99.90
2022-07-28T21:26:23.689Z,99.90
2022-07-28T21:29:09.167Z,99.90
2022-07-28T21:32:04.589Z,99.90
2022-07-28T21:34:33.934Z,99.90
2022-07-28T21:37:02.725Z,99.90
2022-07-28T21:39:31.844Z,99.90
2022-07-28T21:42:01.209Z,99.90
2022-07-28T21:44:30.196Z,99.90
2022-07-28T21:46:59.207Z,99.90
2022-07-28T21:49:28.669Z,99.90
2022-07-28T21:51:55.490Z,99.90
2022-07-28T21:54:22.621Z,99.90
2022-07-28T21:56:50.165Z,99.90
2022-07-28T21:59:19.457Z,99.90
2022-07-28T22:01:48.416Z,99.90
2022-07-28T22:04:15.702Z,99.90
2022-07-28T22:06:45.978Z,99.90
2022-07-28T22:09:16.568Z,99.90
2022-07-28T22:11:45.873Z,99.90
2022-07-28T22:14:12.984Z,99.90
2022-07-28T22:16:40.179Z,99.90
2022-07-28T22:19:11.901Z,99.90
2022-07-28T22:21:40.778Z,99.90
2022-07-28T22:24:10.103Z,99.90
2022-07-28T22:26:39.034Z,99.90
2022-07-28T22:29:05.816Z,99.90
2022-07-28T22:31:32.660Z,99.90
2022-07-28T22:33:59.568Z,99.90
2022-07-28T22:36:26.434Z,99.90
2022-07-28T22:38:55.379Z,99.90
2022-07-28T22:41:22.328Z,99.90
2022-07-28T22:43:51.353Z,99.90
2022-07-28T22:46:18.253Z,99.90
2022-07-28T22:48:49.665Z,99.90
2022-07-28T22:51:21.498Z,99.90
2022-07-28T22:53:48.269Z,99.90
2022-07-28T22:56:15.433Z,99.90
2022-07-28T22:58:44.323Z,99.90
2022-07-28T23:01:11.271Z,99.90
2022-07-28T23:03:38.343Z,99.90
2022-07-28T23:06:07.617Z,99.90
2022-07-28T23:08:37.486Z,99.90
2022-07-28T23:11:05.597Z,99.90
2022-07-28T23:13:32.570Z,99.90
2022-07-28T23:15:59.384Z,99.90
2022-07-28T23:18:28.970Z,99.90
2022-07-28T23:20:55.821Z,99.90
2022-07-28T23:23:25.035Z,99.90
2022-07-28T23:25:54.005Z,99.90
2022-07-28T23:28:25.526Z,99.90
2022-07-28T23:30:52.462Z,99.90
2022-07-28T23:33:55.441Z,99.90
2022-07-28T23:36:14.689Z,99.90
2022-07-28T23:39:02.586Z,99.90
2022-07-28T23:41:29.776Z,99.90
2022-07-28T23:43:59.247Z,99.90
2022-07-28T23:46:28.393Z,99.90
2022-07-28T23:48:55.228Z,99.90
2022-07-28T23:51:47.165Z,99.90
2022-07-28T23:54:11.328Z,99.90
2022-07-28T23:56:41.555Z,99.90
2022-07-28T23:59:14.158Z,99.90
